Terminal Aerodrome Forecast
Issued by NWS

Home | Current Version | Previous Version | Text Only | Print | Product List | Glossary On
Versions: 1 2 3 4 5 6 7 8 9 10 11 12 13 14 15
000
FTUS46 KMTR 271731
TAFSJC
TAF
KSJC 271731Z 2718/2818 VRB03KT P6SM FEW012 FEW018 SCT021
     FM272000 30010KT P6SM FEW012 FEW022
     FM280400 30005KT P6SM SCT020
     FM280600 VRB04KT P6SM OVC015
     FM281200 VRB03KT P6SM OVC012
     FM281700 VRB02KT P6SM FEW014=

USA.gov is the U.S. government's official web portal to all federal, state and local government web resources and services.